createdAt,value
2019-06-20T00:01:25.321Z,18.18
2019-06-20T00:04:00.096Z,18.18
2019-06-20T00:06:33.873Z,18.16
2019-06-20T00:09:09.605Z,18.12
2019-06-20T00:11:53.407Z,18.22
2019-06-20T00:14:41.646Z,18.18
2019-06-20T00:17:29.790Z,18.16
2019-06-20T00:20:16.427Z,18.15
2019-06-20T00:22:50.574Z,18.04
2019-06-20T00:25:24.484Z,18.08
2019-06-20T00:28:18.528Z,18.13
2019-06-20T00:31:04.828Z,18.11
2019-06-20T00:33:57.526Z,18.05
2019-06-20T00:36:31.358Z,17.92
2019-06-20T00:39:05.913Z,17.92
2019-06-20T00:41:39.773Z,17.97
2019-06-20T00:44:13.315Z,17.82
2019-06-20T00:46:55.262Z,17.72
2019-06-20T00:49:28.813Z,17.76
2019-06-20T00:52:02.012Z,17.75
2019-06-20T00:54:35.734Z,17.73
2019-06-20T00:57:10.091Z,17.73
2019-06-20T00:59:55.106Z,17.79
2019-06-20T01:02:29.778Z,17.65
2019-06-20T01:05:03.661Z,17.60
2019-06-20T01:07:39.336Z,17.60
2019-06-20T01:10:24.395Z,17.75
2019-06-20T01:12:58.299Z,17.63
2019-06-20T01:15:32.061Z,17.63
2019-06-20T01:18:05.723Z,17.60
2019-06-20T01:20:51.513Z,17.67
2019-06-20T01:23:25.117Z,17.53
2019-06-20T01:25:59.407Z,17.51
2019-06-20T01:28:44.686Z,17.64
2019-06-20T01:31:33.090Z,17.63
2019-06-20T01:34:06.876Z,17.48
2019-06-20T01:36:54.971Z,17.56
2019-06-20T01:39:40.714Z,17.60
2019-06-20T01:42:27.395Z,17.62
2019-06-20T01:45:13.369Z,17.52
2019-06-20T01:47:59.995Z,17.51
2019-06-20T01:50:34.263Z,17.32
2019-06-20T01:53:07.718Z,17.28
2019-06-20T01:55:40.977Z,17.28
2019-06-20T01:58:25.001Z,17.34
2019-06-20T02:01:14.814Z,17.41
2019-06-20T02:04:01.133Z,17.40
2019-06-20T02:06:45.861Z,17.36
2019-06-20T02:09:23.002Z,17.26
2019-06-20T02:12:15.644Z,17.34
2019-06-20T02:15:02.032Z,17.38
2019-06-20T02:17:36.487Z,17.23
2019-06-20T02:20:32.295Z,17.34
2019-06-20T02:23:06.332Z,17.18
2019-06-20T02:25:52.424Z,17.26
2019-06-20T02:28:26.227Z,17.11
2019-06-20T02:31:11.422Z,17.25
2019-06-20T02:33:44.298Z,17.12
2019-06-20T02:36:29.185Z,17.26
2019-06-20T02:39:02.778Z,17.16
2019-06-20T02:41:37.913Z,17.17
2019-06-20T02:44:28.461Z,17.13
2019-06-20T02:46:46.562Z,17.11
2019-06-20T02:49:20.154Z,17.11
2019-06-20T02:51:54.108Z,17.11
2019-06-20T02:54:28.507Z,17.09
2019-06-20T02:57:02.239Z,17.10
2019-06-20T02:59:36.756Z,17.01
2019-06-20T03:02:10.202Z,17.01
2019-06-20T03:04:45.755Z,17.00
2019-06-20T03:07:37.381Z,17.10
2019-06-20T03:10:11.228Z,17.00
2019-06-20T03:13:03.363Z,17.09
2019-06-20T03:15:36.933Z,16.91
2019-06-20T03:18:10.530Z,16.92
2019-06-20T03:20:43.774Z,16.93
2019-06-20T03:23:17.315Z,16.93
2019-06-20T03:25:56.566Z,16.96
2019-06-20T03:28:29.755Z,16.94
2019-06-20T03:31:03.906Z,16.93
2019-06-20T03:33:55.715Z,17.10
2019-06-20T03:36:28.931Z,16.98
2019-06-20T03:39:02.297Z,16.98
2019-06-20T03:41:37.560Z,16.97
2019-06-20T03:44:11.806Z,17.01
2019-06-20T03:46:49.012Z,17.03
2019-06-20T03:49:34.985Z,17.19
2019-06-20T03:52:25.235Z,17.22
2019-06-20T03:54:59.134Z,17.12
2019-06-20T03:57:34.492Z,17.08
2019-06-20T04:00:19.645Z,17.25
2019-06-20T04:02:53.347Z,17.14
2019-06-20T04:05:26.840Z,17.17
2019-06-20T04:08:01.133Z,17.18
2019-06-20T04:10:35.906Z,17.18
2019-06-20T04:13:28.200Z,17.29
2019-06-20T04:16:01.744Z,17.16
2019-06-20T04:18:35.977Z,17.22
2019-06-20T04:21:27.371Z,17.40
2019-06-20T04:24:18.853Z,17.46
2019-06-20T04:26:51.594Z,17.40
2019-06-20T04:29:43.118Z,17.58
2019-06-20T04:32:16.780Z,17.51
2019-06-20T04:34:51.871Z,17.50
2019-06-20T04:37:25.576Z,17.44
2019-06-20T04:40:00.303Z,17.53
2019-06-20T04:42:36.855Z,17.57
2019-06-20T04:45:41.765Z,17.58
2019-06-20T04:48:15.401Z,17.45
2019-06-20T04:50:48.879Z,17.55
2019-06-20T04:53:22.449Z,17.56
2019-06-20T04:55:56.006Z,17.54
2019-06-20T04:58:29.606Z,17.60
2019-06-20T05:01:03.606Z,17.68
2019-06-20T05:03:37.251Z,17.74
2019-06-20T05:06:11.294Z,17.79
2019-06-20T05:08:45.094Z,17.86
2019-06-20T05:11:34.311Z,17.96
2019-06-20T05:14:18.478Z,18.02
2019-06-20T05:16:51.702Z,17.90
2019-06-20T05:19:26.802Z,17.94
2019-06-20T05:22:00.236Z,17.87
2019-06-20T05:24:33.805Z,17.81
2019-06-20T05:27:07.344Z,17.75
2019-06-20T05:29:40.906Z,17.69
2019-06-20T05:32:14.797Z,17.61
2019-06-20T05:34:48.191Z,17.66
2019-06-20T05:37:21.723Z,17.63
2019-06-20T05:39:55.365Z,17.61
2019-06-20T05:42:32.345Z,17.66
2019-06-20T05:45:06.991Z,17.69
2019-06-20T05:47:49.996Z,17.79
2019-06-20T05:50:23.512Z,17.64
2019-06-20T05:52:57.069Z,17.64
2019-06-20T05:55:30.619Z,17.63
2019-06-20T05:58:04.190Z,17.67
2019-06-20T06:00:37.543Z,17.67
2019-06-20T06:03:13.642Z,17.61
2019-06-20T06:05:46.208Z,17.63
2019-06-20T06:08:19.439Z,17.72
2019-06-20T06:11:11.866Z,17.83
2019-06-20T06:14:01.493Z,17.88
2019-06-20T06:16:34.709Z,17.76
2019-06-20T06:19:08.708Z,17.80
2019-06-20T06:21:42.423Z,17.84
2019-06-20T06:24:25.663Z,17.98
2019-06-20T06:27:00.096Z,17.93
2019-06-20T06:29:34.019Z,17.96
2019-06-20T06:32:07.700Z,17.97
2019-06-20T06:34:41.212Z,17.95
2019-06-20T06:37:14.786Z,17.99
2019-06-20T06:39:48.472Z,17.95
2019-06-20T06:42:21.991Z,17.98
2019-06-20T06:44:55.565Z,17.95
2019-06-20T06:47:28.772Z,17.99
2019-06-20T06:50:12.009Z,18.26
2019-06-20T06:52:45.224Z,18.22
2019-06-20T06:55:18.654Z,18.32
2019-06-20T06:57:52.269Z,18.41
2019-06-20T07:00:25.815Z,18.38
2019-06-20T07:02:59.434Z,18.34
2019-06-20T07:05:43.583Z,18.48
2019-06-20T07:08:17.539Z,18.41
2019-06-20T07:10:51.135Z,18.43
2019-06-20T07:13:24.786Z,18.29
2019-06-20T07:16:08.239Z,18.39
2019-06-20T07:18:41.479Z,18.23
2019-06-20T07:21:15.360Z,18.27
2019-06-20T07:23:48.916Z,18.28
2019-06-20T07:26:22.162Z,18.45
2019-06-20T07:28:55.751Z,18.45
2019-06-20T07:31:29.460Z,18.44
2019-06-20T07:34:03.006Z,18.46
2019-06-20T07:36:37.593Z,18.41
2019-06-20T07:39:24.311Z,18.60
2019-06-20T07:42:11.322Z,18.83
2019-06-20T07:44:45.148Z,18.88
2019-06-20T07:47:19.065Z,19.05
2019-06-20T07:49:53.707Z,19.15
2019-06-20T07:52:39.724Z,19.47
2019-06-20T07:55:14.481Z,19.37
2019-06-20T07:57:48.037Z,19.28
2019-06-20T08:00:21.767Z,19.28
2019-06-20T08:02:55.141Z,19.13
2019-06-20T08:05:29.438Z,19.10
2019-06-20T08:08:03.038Z,19.02
2019-06-20T08:10:37.016Z,19.06
2019-06-20T08:13:24.326Z,19.15
2019-06-20T08:15:59.038Z,19.06
2019-06-20T08:18:50.569Z,19.22
2019-06-20T08:21:36.428Z,19.42
2019-06-20T08:24:09.653Z,19.49
2019-06-20T08:26:43.412Z,19.75
2019-06-20T08:29:21.056Z,19.61
2019-06-20T08:31:52.070Z,19.71
2019-06-20T08:34:25.758Z,19.67
2019-06-20T08:37:00.501Z,19.88
2019-06-20T08:39:34.105Z,20.07
2019-06-20T08:42:16.958Z,20.38
2019-06-20T08:44:50.549Z,20.32
2019-06-20T08:47:23.924Z,20.68
2019-06-20T08:49:58.182Z,20.69
2019-06-20T08:52:32.579Z,20.50
2019-06-20T08:55:07.948Z,20.26
2019-06-20T08:57:41.485Z,19.99
2019-06-20T09:00:16.164Z,19.79
2019-06-20T09:05:55.475Z,20.17
2019-06-20T09:08:30.355Z,20.07
2019-06-20T09:11:15.670Z,20.22
2019-06-20T09:13:53.761Z,19.96
2019-06-20T09:16:28.220Z,19.74
2019-06-20T09:19:14.851Z,19.65
2019-06-20T09:22:02.263Z,19.52
2019-06-20T09:24:37.524Z,19.45
2019-06-20T09:27:12.514Z,19.58
2019-06-20T09:30:00.410Z,20.22
2019-06-20T09:32:34.856Z,20.43
2019-06-20T09:35:10.035Z,20.56
2019-06-20T09:37:44.412Z,21.04
2019-06-20T09:40:30.951Z,21.25
2019-06-20T09:43:27.673Z,21.15
2019-06-20T09:46:07.890Z,20.66
2019-06-20T09:48:46.811Z,20.55
2019-06-20T09:51:30.528Z,20.93
2019-06-20T09:54:03.512Z,20.87
2019-06-20T09:56:37.020Z,20.96
2019-06-20T09:59:26.913Z,20.86
2019-06-20T10:01:58.960Z,20.94
2019-06-20T10:04:37.942Z,20.83
2019-06-20T10:07:29.061Z,20.99
2019-06-20T10:10:05.419Z,21.04
2019-06-20T10:12:59.494Z,21.06
2019-06-20T10:15:38.243Z,21.15
2019-06-20T10:18:22.590Z,21.52
2019-06-20T10:21:16.142Z,21.82
2019-06-20T10:23:52.029Z,21.64
2019-06-20T10:26:49.608Z,22.11
2019-06-20T10:29:24.183Z,22.02
2019-06-20T10:31:57.828Z,21.93
2019-06-20T10:34:31.564Z,22.05
2019-06-20T10:37:05.124Z,22.24
2019-06-20T10:39:38.077Z,22.37
2019-06-20T10:42:24.390Z,22.77
2019-06-20T10:44:57.637Z,22.64
2019-06-20T10:47:35.113Z,22.53
2019-06-20T10:50:09.326Z,22.29
2019-06-20T10:52:43.661Z,22.18
2019-06-20T10:55:19.707Z,22.11
2019-06-20T10:57:53.042Z,22.05
2019-06-20T11:00:44.617Z,22.02
2019-06-20T11:03:20.274Z,22.40
2019-06-20T11:06:14.216Z,22.87
2019-06-20T11:08:47.936Z,22.60
2019-06-20T11:11:31.214Z,22.70
2019-06-20T11:14:21.661Z,22.53
2019-06-20T11:17:04.928Z,22.80
2019-06-20T11:19:39.739Z,22.79
2019-06-20T11:22:13.057Z,22.70
2019-06-20T11:24:47.425Z,22.28
2019-06-20T11:27:33.375Z,22.25
2019-06-20T11:30:07.965Z,21.99
2019-06-20T11:32:41.202Z,22.05
2019-06-20T11:35:26.370Z,22.80
2019-06-20T11:38:00.365Z,23.03
2019-06-20T11:40:33.585Z,23.18
2019-06-20T11:43:06.978Z,23.55
2019-06-20T11:45:41.284Z,23.73
2019-06-20T11:48:26.879Z,23.79
2019-06-20T11:51:00.239Z,23.28
2019-06-20T11:53:35.281Z,23.36
2019-06-20T11:56:09.067Z,23.57
2019-06-20T11:58:42.385Z,23.60
2019-06-20T12:01:15.626Z,23.36
2019-06-20T12:03:49.058Z,23.52
2019-06-20T12:06:22.463Z,23.77
2019-06-20T12:09:13.572Z,23.31
2019-06-20T12:11:48.783Z,23.00
2019-06-20T12:14:24.149Z,23.12
2019-06-20T12:16:57.686Z,23.46
2019-06-20T12:19:30.959Z,23.90
2019-06-20T12:22:10.319Z,23.59
2019-06-20T12:24:55.765Z,23.41
2019-06-20T12:27:29.641Z,23.08
2019-06-20T12:30:06.781Z,23.05
2019-06-20T12:32:55.156Z,23.45
2019-06-20T12:35:46.901Z,23.67
2019-06-20T12:38:46.227Z,23.68
2019-06-20T12:41:45.608Z,24.20
2019-06-20T12:44:31.844Z,24.12
2019-06-20T12:47:05.054Z,23.82
2019-06-20T12:49:40.114Z,23.69
2019-06-20T12:52:14.886Z,23.28
2019-06-20T12:54:49.154Z,23.16
2019-06-20T12:57:23.134Z,23.52
2019-06-20T13:00:13.310Z,24.28
2019-06-20T13:02:59.028Z,24.52
2019-06-20T13:05:33.395Z,24.43
2019-06-20T13:08:13.548Z,24.74
2019-06-20T13:10:46.266Z,24.82
2019-06-20T13:13:20.309Z,25.14
2019-06-20T13:16:07.187Z,25.08
2019-06-20T13:18:41.378Z,24.76
2019-06-20T13:21:18.959Z,24.65
2019-06-20T13:23:56.242Z,24.61
2019-06-20T13:26:29.716Z,24.85
2019-06-20T13:29:04.439Z,24.96
2019-06-20T13:31:54.862Z,25.41
2019-06-20T13:34:13.792Z,25.52
2019-06-20T13:36:47.072Z,25.12
2019-06-20T13:39:20.624Z,24.66
2019-06-20T13:41:53.651Z,24.53
2019-06-20T13:44:39.594Z,24.53
2019-06-20T13:47:23.743Z,24.53
2019-06-20T13:49:57.331Z,24.38
2019-06-20T13:52:33.962Z,24.48
2019-06-20T13:55:06.514Z,24.58
2019-06-20T13:57:52.938Z,24.79
2019-06-20T14:00:27.557Z,25.08
2019-06-20T14:03:01.453Z,25.18
2019-06-20T14:05:34.868Z,24.92
2019-06-20T14:08:11.381Z,24.76
2019-06-20T14:10:46.046Z,25.18
2019-06-20T14:13:19.936Z,25.60
2019-06-20T14:15:53.810Z,25.56
2019-06-20T14:18:27.617Z,25.36
2019-06-20T14:21:00.827Z,25.17
2019-06-20T14:23:34.324Z,24.81
2019-06-20T14:26:26.590Z,24.84
2019-06-20T14:29:12.836Z,24.59
2019-06-20T14:31:47.445Z,24.36
2019-06-20T14:34:20.857Z,24.10
2019-06-20T14:36:56.219Z,23.91
2019-06-20T14:39:30.093Z,24.03
2019-06-20T14:42:03.336Z,23.86
2019-06-20T14:44:36.675Z,23.82
2019-06-20T14:47:11.096Z,23.84
2019-06-20T14:49:46.007Z,24.17
2019-06-20T14:52:19.548Z,24.38
2019-06-20T14:54:54.004Z,24.40
2019-06-20T14:57:46.970Z,24.26
2019-06-20T15:00:22.389Z,24.37
2019-06-20T15:02:58.226Z,24.82
2019-06-20T15:05:30.721Z,25.23
2019-06-20T15:08:05.877Z,25.53
2019-06-20T15:10:39.630Z,25.02
2019-06-20T15:13:12.835Z,24.74
2019-06-20T15:15:47.795Z,24.30
2019-06-20T15:18:22.170Z,23.99
2019-06-20T15:20:58.995Z,23.71
2019-06-20T15:23:31.457Z,23.39
2019-06-20T15:26:04.893Z,23.21
2019-06-20T15:28:38.532Z,23.07
2019-06-20T15:31:10.710Z,22.93
2019-06-20T15:33:46.185Z,22.80
2019-06-20T15:36:20.244Z,22.27
2019-06-20T15:38:55.055Z,22.25
2019-06-20T15:41:42.580Z,22.96
2019-06-20T15:44:16.576Z,23.08
2019-06-20T15:46:50.128Z,23.28
2019-06-20T15:49:24.091Z,23.42
2019-06-20T15:52:10.594Z,23.65
2019-06-20T15:54:43.864Z,23.56
2019-06-20T15:57:17.215Z,23.38
2019-06-20T15:59:50.887Z,23.27
2019-06-20T16:02:22.758Z,23.26
2019-06-20T16:04:55.994Z,23.04
2019-06-20T16:07:29.248Z,22.93
2019-06-20T16:10:21.135Z,22.88
2019-06-20T16:13:07.018Z,22.82
2019-06-20T16:15:59.081Z,23.32
2019-06-20T16:18:45.116Z,23.77
2019-06-20T16:21:28.724Z,23.82
2019-06-20T16:24:02.060Z,23.43
2019-06-20T16:26:35.869Z,23.05
2019-06-20T16:29:09.601Z,22.86
2019-06-20T16:31:43.465Z,22.74
2019-06-20T16:34:32.725Z,22.71
2019-06-20T16:37:10.202Z,22.49
2019-06-20T16:39:41.101Z,22.39
2019-06-20T16:42:25.364Z,22.47
2019-06-20T16:44:59.209Z,22.42
2019-06-20T16:47:45.695Z,22.44
2019-06-20T16:50:29.051Z,22.82
2019-06-20T16:53:02.294Z,23.34
2019-06-20T16:55:35.601Z,23.66
2019-06-20T16:58:08.826Z,23.77
2019-06-20T17:00:53.639Z,24.02
2019-06-20T17:03:40.705Z,24.33
2019-06-20T17:06:02.216Z,24.33
2019-06-20T17:08:35.829Z,24.02
2019-06-20T17:11:09.166Z,24.30
2019-06-20T17:13:42.689Z,24.70
2019-06-20T17:16:15.963Z,24.44
2019-06-20T17:18:59.122Z,24.28
2019-06-20T17:21:35.625Z,24.16
2019-06-20T17:24:10.768Z,24.77
2019-06-20T17:26:46.023Z,24.79
2019-06-20T17:29:38.873Z,25.54
2019-06-20T17:32:12.463Z,26.12
2019-06-20T17:35:10.447Z,26.38
2019-06-20T17:37:48.660Z,26.49
2019-06-20T17:40:26.305Z,26.03
2019-06-20T17:43:21.617Z,25.21
2019-06-20T17:45:56.795Z,24.92
2019-06-20T17:48:33.626Z,25.42
2019-06-20T17:51:07.971Z,25.76
2019-06-20T17:53:43.828Z,26.10
2019-06-20T17:56:30.085Z,26.28
2019-06-20T17:59:03.740Z,26.23
2019-06-20T18:01:38.097Z,26.07
2019-06-20T18:04:13.946Z,25.04
2019-06-20T18:06:49.497Z,24.00
2019-06-20T18:09:22.311Z,23.42
2019-06-20T18:11:59.860Z,22.98
2019-06-20T18:14:44.158Z,22.86
2019-06-20T18:17:17.748Z,22.53
2019-06-20T18:19:51.368Z,22.27
2019-06-20T18:22:25.981Z,22.17
2019-06-20T18:25:21.763Z,22.02
2019-06-20T18:28:13.001Z,21.85
2019-06-20T18:30:46.704Z,21.59
2019-06-20T18:33:23.352Z,21.62
2019-06-20T18:35:57.985Z,21.54
2019-06-20T18:38:31.628Z,21.57
2019-06-20T18:41:05.970Z,21.51
2019-06-20T18:43:39.327Z,21.51
2019-06-20T18:46:12.993Z,21.64
2019-06-20T18:48:45.743Z,21.64
2019-06-20T18:51:31.782Z,21.69
2019-06-20T18:54:05.674Z,21.62
2019-06-20T18:56:52.427Z,21.66
2019-06-20T18:59:24.327Z,21.56
2019-06-20T19:01:58.980Z,21.55
2019-06-20T19:04:45.336Z,21.48
2019-06-20T19:07:08.671Z,21.33
2019-06-20T19:09:54.802Z,21.31
2019-06-20T19:12:31.590Z,21.14
2019-06-20T19:15:07.774Z,21.16
2019-06-20T19:18:03.872Z,21.18
2019-06-20T19:20:50.163Z,21.07
2019-06-20T19:23:25.429Z,20.77
2019-06-20T19:25:59.228Z,20.61
2019-06-20T19:28:32.740Z,20.53
2019-06-20T19:31:06.131Z,20.44
2019-06-20T19:33:51.948Z,20.50
2019-06-20T19:36:28.314Z,20.30
2019-06-20T19:39:14.434Z,20.38
2019-06-20T19:42:07.757Z,20.31
2019-06-20T19:44:42.777Z,20.14
2019-06-20T19:47:17.792Z,20.02
2019-06-20T19:49:51.706Z,19.94
2019-06-20T19:52:25.550Z,19.92
2019-06-20T19:55:02.234Z,19.88
2019-06-20T19:57:41.723Z,19.80
2019-06-20T20:00:17.785Z,19.76
2019-06-20T20:03:01.396Z,19.82
2019-06-20T20:05:35.579Z,19.70
2019-06-20T20:08:24.974Z,19.67
2019-06-20T20:11:03.247Z,19.30
2019-06-20T20:13:36.877Z,18.86
2019-06-20T20:16:20.760Z,18.71
2019-06-20T20:19:04.449Z,18.51
2019-06-20T20:21:37.878Z,18.30
2019-06-20T20:24:11.335Z,18.24
2019-06-20T20:26:45.030Z,18.23
2019-06-20T20:29:18.966Z,18.18
2019-06-20T20:31:53.758Z,18.17
2019-06-20T20:34:29.767Z,18.07
2019-06-20T20:37:23.678Z,18.15
2019-06-20T20:40:00.834Z,17.99
2019-06-20T20:42:35.507Z,17.95
2019-06-20T20:45:10.078Z,17.96
2019-06-20T20:47:56.249Z,18.07
2019-06-20T20:50:35.152Z,17.96
2019-06-20T20:53:08.741Z,17.97
2019-06-20T20:55:42.364Z,17.92
2019-06-20T20:58:16.751Z,17.86
2019-06-20T21:01:22.188Z,17.82
2019-06-20T21:04:14.012Z,17.90
2019-06-20T21:06:48.029Z,17.78
2019-06-20T21:09:34.133Z,17.92
2019-06-20T21:12:07.143Z,17.80
2019-06-20T21:14:44.945Z,17.86
2019-06-20T21:17:38.447Z,17.95
2019-06-20T21:20:11.869Z,17.81
2019-06-20T21:22:45.253Z,17.82
2019-06-20T21:25:20.294Z,17.82
2019-06-20T21:27:53.207Z,17.76
2019-06-20T21:30:27.516Z,17.80
2019-06-20T21:33:12.785Z,17.86
2019-06-20T21:35:46.354Z,17.74
2019-06-20T21:38:31.209Z,17.86
2019-06-20T21:41:05.740Z,17.70
2019-06-20T21:43:41.593Z,17.71
2019-06-20T21:46:15.201Z,17.68
2019-06-20T21:48:48.880Z,17.64
2019-06-20T21:51:21.735Z,17.59
2019-06-20T21:53:55.484Z,17.45
2019-06-20T21:56:29.324Z,17.41
2019-06-20T21:59:03.739Z,17.41
2019-06-20T22:01:40.798Z,17.38
2019-06-20T22:04:26.646Z,17.53
2019-06-20T22:07:00.333Z,17.48
2019-06-20T22:09:58.551Z,17.62
2019-06-20T22:12:34.438Z,17.58
2019-06-20T22:15:08.950Z,17.51
2019-06-20T22:17:54.883Z,17.65
2019-06-20T22:20:34.463Z,17.52
2019-06-20T22:23:12.132Z,17.52
2019-06-20T22:25:45.766Z,17.38
2019-06-20T22:28:31.312Z,17.54
2019-06-20T22:31:05.040Z,17.26
2019-06-20T22:33:38.247Z,17.16
2019-06-20T22:36:11.629Z,16.99
2019-06-20T22:38:46.244Z,16.96
2019-06-20T22:41:39.099Z,17.02
2019-06-20T22:44:12.709Z,16.88
2019-06-20T22:46:47.280Z,16.83
2019-06-20T22:49:32.368Z,16.87
2019-06-20T22:52:11.645Z,16.66
2019-06-20T22:54:47.512Z,16.63
2019-06-20T22:57:23.407Z,16.63
2019-06-20T23:00:13.221Z,16.69
2019-06-20T23:03:00.881Z,16.70
2019-06-20T23:05:38.783Z,16.49
2019-06-20T23:08:12.652Z,16.49
2019-06-20T23:10:47.955Z,16.53
2019-06-20T23:13:21.518Z,16.49
2019-06-20T23:15:54.760Z,16.41
2019-06-20T23:18:30.346Z,16.43
2019-06-20T23:21:05.142Z,16.46
2019-06-20T23:23:47.297Z,16.40
2019-06-20T23:26:20.965Z,16.30
2019-06-20T23:29:12.134Z,16.29
2019-06-20T23:31:48.143Z,16.29
2019-06-20T23:34:33.906Z,16.23
2019-06-20T23:37:12.793Z,16.27
2019-06-20T23:39:43.777Z,16.27
2019-06-20T23:42:18.336Z,16.16
2019-06-20T23:45:12.400Z,16.28
2019-06-20T23:47:45.632Z,16.18
2019-06-20T23:50:33.037Z,16.31
2019-06-20T23:53:15.935Z,16.26
2019-06-20T23:56:09.626Z,16.38
2019-06-20T23:58:43.495Z,16.19
